sensor_id;sensor_type;location;lat;lon;timestamp;pressure;altitude;pressure_sealevel;temperature;humidity
58534;BME280;44109;52.398;7.024;2023-04-28T00:01:39;101321.09;;;9.27;70.08
58534;BME280;44109;52.398;7.024;2023-04-28T00:04:07;101307.19;;;9.39;70.48
58534;BME280;44109;52.398;7.024;2023-04-28T00:06:37;101301.47;;;9.32;69.76
58534;BME280;44109;52.398;7.024;2023-04-28T00:09:04;101298.34;;;9.34;72.10
58534;BME280;44109;52.398;7.024;2023-04-28T00:11:34;101296.38;;;9.34;73.26
58534;BME280;44109;52.398;7.024;2023-04-28T00:14:01;101296.19;;;9.15;71.02
58534;BME280;44109;52.398;7.024;2023-04-28T00:16:29;101270.84;;;9.13;73.08
58534;BME280;44109;52.398;7.024;2023-04-28T00:18:57;101280.50;;;9.19;74.10
58534;BME280;44109;52.398;7.024;2023-04-28T00:21:24;101270.47;;;9.27;75.49
58534;BME280;44109;52.398;7.024;2023-04-28T00:23:55;101276.06;;;9.30;73.40
58534;BME280;44109;52.398;7.024;2023-04-28T00:26:22;101265.13;;;9.34;76.11
58534;BME280;44109;52.398;7.024;2023-04-28T00:28:50;101257.66;;;9.22;74.73
58534;BME280;44109;52.398;7.024;2023-04-28T00:31:18;101251.22;;;9.18;74.99
58534;BME280;44109;52.398;7.024;2023-04-28T00:33:45;101245.63;;;9.30;75.65
58534;BME280;44109;52.398;7.024;2023-04-28T00:36:13;101241.75;;;9.19;74.62
58534;BME280;44109;52.398;7.024;2023-04-28T00:38:40;101234.56;;;9.30;75.74
58534;BME280;44109;52.398;7.024;2023-04-28T00:41:09;101237.94;;;9.24;75.60
58534;BME280;44109;52.398;7.024;2023-04-28T00:43:45;101235.41;;;9.19;74.59
58534;BME280;44109;52.398;7.024;2023-04-28T00:46:19;101225.13;;;9.19;74.25
58534;BME280;44109;52.398;7.024;2023-04-28T00:48:49;101217.56;;;9.04;75.47
58534;BME280;44109;52.398;7.024;2023-04-28T00:51:17;101212.06;;;8.92;77.74
58534;BME280;44109;52.398;7.024;2023-04-28T00:53:46;101209.63;;;8.90;76.31
58534;BME280;44109;52.398;7.024;2023-04-28T00:56:16;101195.44;;;8.92;77.32
58534;BME280;44109;52.398;7.024;2023-04-28T00:58:43;101201.91;;;8.83;77.50
58534;BME280;44109;52.398;7.024;2023-04-28T01:01:11;101205.81;;;8.95;78.78
58534;BME280;44109;52.398;7.024;2023-04-28T01:03:39;101203.03;;;8.95;77.84
58534;BME280;44109;52.398;7.024;2023-04-28T01:06:08;101187.28;;;8.95;79.70
58534;BME280;44109;52.398;7.024;2023-04-28T01:08:37;101208.97;;;9.21;78.93
58534;BME280;44109;52.398;7.024;2023-04-28T01:11:05;101205.72;;;9.31;80.52
58534;BME280;44109;52.398;7.024;2023-04-28T01:16:22;101199.69;;;9.42;82.04
58534;BME280;44109;52.398;7.024;2023-04-28T01:18:51;101196.00;;;9.37;79.03
58534;BME280;44109;52.398;7.024;2023-04-28T01:21:25;101178.84;;;9.32;79.33
58534;BME280;44109;52.398;7.024;2023-04-28T01:23:55;101187.84;;;9.29;75.77
58534;BME280;44109;52.398;7.024;2023-04-28T01:26:23;101179.72;;;9.08;78.31
58534;BME280;44109;52.398;7.024;2023-04-28T01:28:51;101175.81;;;9.09;78.02
58534;BME280;44109;52.398;7.024;2023-04-28T01:31:18;101168.25;;;9.22;78.39
58534;BME280;44109;52.398;7.024;2023-04-28T01:33:46;101169.78;;;9.19;78.47
58534;BME280;44109;52.398;7.024;2023-04-28T01:36:14;101167.81;;;9.20;79.19
58534;BME280;44109;52.398;7.024;2023-04-28T01:38:41;101157.34;;;9.13;78.79
58534;BME280;44109;52.398;7.024;2023-04-28T01:41:10;101152.25;;;9.15;78.13
58534;BME280;44109;52.398;7.024;2023-04-28T01:43:38;101144.47;;;9.05;79.92
58534;BME280;44109;52.398;7.024;2023-04-28T01:46:05;101144.50;;;8.93;78.47
58534;BME280;44109;52.398;7.024;2023-04-28T01:48:33;101147.94;;;8.89;79.24
58534;BME280;44109;52.398;7.024;2023-04-28T01:51:01;101143.47;;;8.85;80.45
58534;BME280;44109;52.398;7.024;2023-04-28T01:53:28;101149.38;;;8.71;80.46
58534;BME280;44109;52.398;7.024;2023-04-28T01:55:56;101146.75;;;8.62;79.63
58534;BME280;44109;52.398;7.024;2023-04-28T01:58:25;101144.44;;;8.64;80.78
58534;BME280;44109;52.398;7.024;2023-04-28T02:00:53;101153.78;;;8.60;80.67
58534;BME280;44109;52.398;7.024;2023-04-28T02:03:20;101147.91;;;8.49;81.92
58534;BME280;44109;52.398;7.024;2023-04-28T02:05:48;101150.47;;;8.54;83.04
58534;BME280;44109;52.398;7.024;2023-04-28T02:08:16;101159.78;;;8.50;82.72
58534;BME280;44109;52.398;7.024;2023-04-28T02:10:43;101150.81;;;8.41;81.41
58534;BME280;44109;52.398;7.024;2023-04-28T02:13:11;101145.28;;;8.41;83.68
58534;BME280;44109;52.398;7.024;2023-04-28T02:15:40;101148.63;;;8.46;84.89
58534;BME280;44109;52.398;7.024;2023-04-28T02:18:09;101139.03;;;8.31;82.71
58534;BME280;44109;52.398;7.024;2023-04-28T02:20:36;101138.47;;;8.38;85.72
58534;BME280;44109;52.398;7.024;2023-04-28T02:23:04;101129.25;;;8.34;83.10
58534;BME280;44109;52.398;7.024;2023-04-28T02:25:31;101121.22;;;8.41;85.62
58534;BME280;44109;52.398;7.024;2023-04-28T02:27:59;101121.41;;;8.48;84.69
58534;BME280;44109;52.398;7.024;2023-04-28T02:30:27;101120.97;;;8.46;82.39
58534;BME280;44109;52.398;7.024;2023-04-28T02:32:56;101122.69;;;8.51;83.63
58534;BME280;44109;52.398;7.024;2023-04-28T02:35:23;101118.41;;;8.53;83.75
58534;BME280;44109;52.398;7.024;2023-04-28T02:37:51;101118.75;;;8.52;83.50
58534;BME280;44109;52.398;7.024;2023-04-28T02:40:19;101111.53;;;8.47;82.25
58534;BME280;44109;52.398;7.024;2023-04-28T02:42:46;101112.31;;;8.48;81.36
58534;BME280;44109;52.398;7.024;2023-04-28T02:45:14;101107.16;;;8.46;82.61
58534;BME280;44109;52.398;7.024;2023-04-28T02:47:42;101103.66;;;8.49;81.82
58534;BME280;44109;52.398;7.024;2023-04-28T02:50:11;101092.41;;;8.42;80.85
58534;BME280;44109;52.398;7.024;2023-04-28T02:52:38;101094.13;;;8.47;84.26
58534;BME280;44109;52.398;7.024;2023-04-28T02:55:06;101091.81;;;8.49;87.07
58534;BME280;44109;52.398;7.024;2023-04-28T02:57:34;101084.66;;;8.48;86.48
58534;BME280;44109;52.398;7.024;2023-04-28T03:00:02;101086.03;;;8.54;90.16
58534;BME280;44109;52.398;7.024;2023-04-28T03:02:31;101084.78;;;8.51;87.18
58534;BME280;44109;52.398;7.024;2023-04-28T03:04:58;101085.34;;;8.57;88.25
58534;BME280;44109;52.398;7.024;2023-04-28T03:07:28;101083.50;;;8.61;87.83
58534;BME280;44109;52.398;7.024;2023-04-28T03:09:55;101077.16;;;8.60;86.77
58534;BME280;44109;52.398;7.024;2023-04-28T03:12:23;101058.84;;;8.56;88.71
58534;BME280;44109;52.398;7.024;2023-04-28T03:14:50;101074.94;;;8.66;89.53
58534;BME280;44109;52.398;7.024;2023-04-28T03:17:18;101063.63;;;8.71;89.34
58534;BME280;44109;52.398;7.024;2023-04-28T03:19:46;101059.28;;;8.70;89.34
58534;BME280;44109;52.398;7.024;2023-04-28T03:22:13;101053.16;;;8.77;90.37
58534;BME280;44109;52.398;7.024;2023-04-28T03:24:42;101046.78;;;8.76;86.51
58534;BME280;44109;52.398;7.024;2023-04-28T03:27:10;101056.38;;;8.79;86.04
58534;BME280;44109;52.398;7.024;2023-04-28T03:29:37;101037.28;;;8.89;89.11
58534;BME280;44109;52.398;7.024;2023-04-28T03:32:05;101048.47;;;8.93;87.50
58534;BME280;44109;52.398;7.024;2023-04-28T03:34:33;101032.22;;;8.92;87.16
58534;BME280;44109;52.398;7.024;2023-04-28T03:37:00;101037.03;;;8.95;83.34
58534;BME280;44109;52.398;7.024;2023-04-28T03:39:28;101032.25;;;9.07;88.24
58534;BME280;44109;52.398;7.024;2023-04-28T03:41:57;101030.47;;;9.15;90.19
58534;BME280;44109;52.398;7.024;2023-04-28T03:44:25;101038.53;;;9.20;89.35
58534;BME280;44109;52.398;7.024;2023-04-28T03:46:52;101029.78;;;9.18;86.47
58534;BME280;44109;52.398;7.024;2023-04-28T03:49:20;101024.25;;;9.18;82.29
58534;BME280;44109;52.398;7.024;2023-04-28T03:51:48;101033.78;;;9.21;85.22
58534;BME280;44109;52.398;7.024;2023-04-28T03:54:16;101026.94;;;9.30;88.09
58534;BME280;44109;52.398;7.024;2023-04-28T03:56:44;101036.59;;;9.36;88.98
58534;BME280;44109;52.398;7.024;2023-04-28T03:59:13;101022.81;;;9.40;88.21
58534;BME280;44109;52.398;7.024;2023-04-28T04:01:41;101018.53;;;9.43;86.52
58534;BME280;44109;52.398;7.024;2023-04-28T04:04:08;101007.75;;;9.37;83.09
58534;BME280;44109;52.398;7.024;2023-04-28T04:06:36;101011.84;;;9.44;85.92
58534;BME280;44109;52.398;7.024;2023-04-28T04:09:03;101005.22;;;9.48;83.82
58534;BME280;44109;52.398;7.024;2023-04-28T04:11:31;101007.03;;;9.56;87.76
58534;BME280;44109;52.398;7.024;2023-04-28T04:13:58;101004.34;;;9.60;88.24
58534;BME280;44109;52.398;7.024;2023-04-28T04:16:27;101003.03;;;9.54;85.34
58534;BME280;44109;52.398;7.024;2023-04-28T04:18:56;101003.03;;;9.54;80.46
58534;BME280;44109;52.398;7.024;2023-04-28T04:21:23;100992.75;;;9.54;81.26
58534;BME280;44109;52.398;7.024;2023-04-28T04:23:51;100998.28;;;9.38;77.08
58534;BME280;44109;52.398;7.024;2023-04-28T04:26:19;100995.41;;;9.51;81.11
58534;BME280;44109;52.398;7.024;2023-04-28T04:28:47;100998.34;;;9.58;80.35
58534;BME280;44109;52.398;7.024;2023-04-28T04:31:14;100992.66;;;9.51;80.44
58534;BME280;44109;52.398;7.024;2023-04-28T04:33:45;100986.56;;;9.61;83.44
58534;BME280;44109;52.398;7.024;2023-04-28T04:36:13;100991.50;;;9.68;82.71
58534;BME280;44109;52.398;7.024;2023-04-28T04:38:40;100996.09;;;9.79;86.86
58534;BME280;44109;52.398;7.024;2023-04-28T04:41:08;100990.38;;;9.88;83.81
58534;BME280;44109;52.398;7.024;2023-04-28T04:43:36;100995.53;;;9.89;85.39
58534;BME280;44109;52.398;7.024;2023-04-28T04:46:03;100996.81;;;9.92;85.57
58534;BME280;44109;52.398;7.024;2023-04-28T04:48:31;100996.53;;;9.97;87.17
58534;BME280;44109;52.398;7.024;2023-04-28T04:51:00;100993.13;;;10.04;88.43
58534;BME280;44109;52.398;7.024;2023-04-28T04:53:28;100986.03;;;10.06;85.17
58534;BME280;44109;52.398;7.024;2023-04-28T04:55:55;100980.13;;;10.08;83.59
58534;BME280;44109;52.398;7.024;2023-04-28T04:58:23;100977.09;;;10.13;85.83
58534;BME280;44109;52.398;7.024;2023-04-28T05:00:51;100976.06;;;10.21;85.59
58534;BME280;44109;52.398;7.024;2023-04-28T05:03:18;100982.50;;;10.25;84.94
58534;BME280;44109;52.398;7.024;2023-04-28T05:05:46;100977.06;;;10.29;84.48
58534;BME280;44109;52.398;7.024;2023-04-28T05:08:15;100976.00;;;10.18;78.74
58534;BME280;44109;52.398;7.024;2023-04-28T05:10:43;100969.09;;;10.27;80.69
58534;BME280;44109;52.398;7.024;2023-04-28T05:13:11;100962.25;;;10.40;84.03
58534;BME280;44109;52.398;7.024;2023-04-28T05:15:38;100963.97;;;10.49;83.02
58534;BME280;44109;52.398;7.024;2023-04-28T05:18:06;100968.38;;;10.50;81.55
58534;BME280;44109;52.398;7.024;2023-04-28T05:20:36;100960.94;;;10.54;83.37
58534;BME280;44109;52.398;7.024;2023-04-28T05:23:04;100965.75;;;10.57;82.82
58534;BME280;44109;52.398;7.024;2023-04-28T05:25:33;100965.44;;;10.62;83.10
58534;BME280;44109;52.398;7.024;2023-04-28T05:28:00;100960.66;;;10.59;82.20
58534;BME280;44109;52.398;7.024;2023-04-28T05:30:32;100963.53;;;10.66;82.04
58534;BME280;44109;52.398;7.024;2023-04-28T05:32:59;100955.97;;;10.63;79.25
58534;BME280;44109;52.398;7.024;2023-04-28T05:35:27;100957.34;;;10.53;76.97
58534;BME280;44109;52.398;7.024;2023-04-28T05:37:56;100946.91;;;10.66;82.53
58534;BME280;44109;52.398;7.024;2023-04-28T05:40:24;100947.03;;;10.73;82.86
58534;BME280;44109;52.398;7.024;2023-04-28T05:42:53;100947.91;;;10.77;79.67
58534;BME280;44109;52.398;7.024;2023-04-28T05:45:21;100941.31;;;10.85;81.30
58534;BME280;44109;52.398;7.024;2023-04-28T05:47:49;100936.13;;;10.84;80.71
58534;BME280;44109;52.398;7.024;2023-04-28T05:50:16;100939.47;;;10.93;78.24
58534;BME280;44109;52.398;7.024;2023-04-28T05:52:44;100944.00;;;11.01;81.38
58534;BME280;44109;52.398;7.024;2023-04-28T05:55:12;100948.25;;;10.95;77.32
58534;BME280;44109;52.398;7.024;2023-04-28T05:57:39;100939.94;;;10.95;79.39
58534;BME280;44109;52.398;7.024;2023-04-28T06:00:10;100944.22;;;10.92;79.45
58534;BME280;44109;52.398;7.024;2023-04-28T06:02:38;100940.41;;;10.78;79.43
58534;BME280;44109;52.398;7.024;2023-04-28T06:05:07;100931.44;;;10.65;85.03
58534;BME280;44109;52.398;7.024;2023-04-28T06:07:35;100921.72;;;10.55;81.88
58534;BME280;44109;52.398;7.024;2023-04-28T06:10:03;100921.44;;;10.60;85.95
58534;BME280;44109;52.398;7.024;2023-04-28T06:12:31;100921.84;;;10.62;85.79
58534;BME280;44109;52.398;7.024;2023-04-28T06:14:59;100924.84;;;10.73;86.07
58534;BME280;44109;52.398;7.024;2023-04-28T06:17:28;100923.97;;;10.69;82.54
58534;BME280;44109;52.398;7.024;2023-04-28T06:19:57;100919.09;;;10.85;87.32
58534;BME280;44109;52.398;7.024;2023-04-28T06:22:25;100918.63;;;11.03;86.08
58534;BME280;44109;52.398;7.024;2023-04-28T06:24:52;100906.16;;;11.16;85.64
58534;BME280;44109;52.398;7.024;2023-04-28T06:27:20;100898.91;;;11.34;84.29
58534;BME280;44109;52.398;7.024;2023-04-28T06:29:47;100903.00;;;11.40;86.75
58534;BME280;44109;52.398;7.024;2023-04-28T06:32:15;100908.34;;;11.53;81.28
58534;BME280;44109;52.398;7.024;2023-04-28T06:34:44;100908.88;;;11.62;81.22
58534;BME280;44109;52.398;7.024;2023-04-28T06:37:12;100911.03;;;11.72;76.68
58534;BME280;44109;52.398;7.024;2023-04-28T06:39:39;100910.47;;;11.89;75.81
58534;BME280;44109;52.398;7.024;2023-04-28T06:42:07;100911.78;;;11.96;76.62
58534;BME280;44109;52.398;7.024;2023-04-28T06:44:34;100911.38;;;12.27;78.93
58534;BME280;44109;52.398;7.024;2023-04-28T06:47:02;100910.88;;;12.52;79.92
58534;BME280;44109;52.398;7.024;2023-04-28T06:49:30;100920.06;;;12.56;74.61
58534;BME280;44109;52.398;7.024;2023-04-28T06:51:59;100918.88;;;12.57;69.70
58534;BME280;44109;52.398;7.024;2023-04-28T06:54:26;100924.47;;;12.60;74.18
58534;BME280;44109;52.398;7.024;2023-04-28T06:56:54;100921.09;;;12.78;75.40
58534;BME280;44109;52.398;7.024;2023-04-28T06:59:21;100915.94;;;12.80;71.81
58534;BME280;44109;52.398;7.024;2023-04-28T07:01:49;100923.09;;;12.77;73.95
58534;BME280;44109;52.398;7.024;2023-04-28T07:04:17;100925.44;;;12.75;71.06
58534;BME280;44109;52.398;7.024;2023-04-28T07:06:44;100919.84;;;12.75;73.96
58534;BME280;44109;52.398;7.024;2023-04-28T07:09:13;100919.94;;;12.82;73.50
58534;BME280;44109;52.398;7.024;2023-04-28T07:11:42;100921.50;;;12.80;71.86
58534;BME280;44109;52.398;7.024;2023-04-28T07:14:10;100915.56;;;12.81;73.93
58534;BME280;44109;52.398;7.024;2023-04-28T07:16:37;100912.84;;;12.88;73.37
58534;BME280;44109;52.398;7.024;2023-04-28T07:19:05;100921.63;;;12.90;73.55
58534;BME280;44109;52.398;7.024;2023-04-28T07:21:33;100916.72;;;12.77;72.02
58534;BME280;44109;52.398;7.024;2023-04-28T07:24:00;100918.41;;;12.88;74.60
58534;BME280;44109;52.398;7.024;2023-04-28T07:26:29;100916.84;;;12.91;74.54
58534;BME280;44109;52.398;7.024;2023-04-28T07:28:59;100921.22;;;12.92;72.87
58534;BME280;44109;52.398;7.024;2023-04-28T07:31:27;100926.91;;;13.03;75.45
58534;BME280;44109;52.398;7.024;2023-04-28T07:33:55;100918.53;;;13.03;75.53
58534;BME280;44109;52.398;7.024;2023-04-28T07:36:23;100918.63;;;13.10;76.53
58534;BME280;44109;52.398;7.024;2023-04-28T07:38:51;100920.63;;;13.13;76.83
58534;BME280;44109;52.398;7.024;2023-04-28T07:41:18;100922.47;;;12.98;75.35
58534;BME280;44109;52.398;7.024;2023-04-28T07:43:47;100921.41;;;13.10;75.99
58534;BME280;44109;52.398;7.024;2023-04-28T07:46:15;100924.59;;;13.12;75.06
58534;BME280;44109;52.398;7.024;2023-04-28T07:48:42;100923.00;;;13.11;75.02
58534;BME280;44109;52.398;7.024;2023-04-28T07:51:10;100924.91;;;13.03;73.99
58534;BME280;44109;52.398;7.024;2023-04-28T07:53:38;100916.66;;;13.14;77.28
58534;BME280;44109;52.398;7.024;2023-04-28T07:56:05;100915.44;;;13.11;79.10
58534;BME280;44109;52.398;7.024;2023-04-28T07:58:33;100905.88;;;13.09;80.62
58534;BME280;44109;52.398;7.024;2023-04-28T08:01:03;100905.84;;;13.05;83.61
58534;BME280;44109;52.398;7.024;2023-04-28T08:03:31;100889.53;;;13.04;85.84
58534;BME280;44109;52.398;7.024;2023-04-28T08:05:59;100870.91;;;13.15;89.46
58534;BME280;44109;52.398;7.024;2023-04-28T08:08:27;100857.66;;;13.01;92.55
58534;BME280;44109;52.398;7.024;2023-04-28T08:10:55;100854.13;;;13.08;92.54
58534;BME280;44109;52.398;7.024;2023-04-28T08:13:24;100860.53;;;13.12;95.37
58534;BME280;44109;52.398;7.024;2023-04-28T08:15:52;100863.75;;;13.14;94.17
58534;BME280;44109;52.398;7.024;2023-04-28T08:18:23;100867.22;;;13.00;98.15
58534;BME280;44109;52.398;7.024;2023-04-28T08:20:51;100881.28;;;13.18;99.65
58534;BME280;44109;52.398;7.024;2023-04-28T08:23:19;100885.72;;;13.23;99.72
58534;BME280;44109;52.398;7.024;2023-04-28T08:25:48;100882.16;;;13.22;99.97
58534;BME280;44109;52.398;7.024;2023-04-28T08:28:16;100880.41;;;13.10;100.00
58534;BME280;44109;52.398;7.024;2023-04-28T08:30:44;100867.22;;;13.00;100.00
58534;BME280;44109;52.398;7.024;2023-04-28T08:33:11;100889.31;;;13.23;100.00
58534;BME280;44109;52.398;7.024;2023-04-28T08:35:40;100875.03;;;13.28;100.00
58534;BME280;44109;52.398;7.024;2023-04-28T08:38:08;100881.47;;;13.39;100.00
58534;BME280;44109;52.398;7.024;2023-04-28T08:40:39;100868.28;;;13.33;100.00
58534;BME280;44109;52.398;7.024;2023-04-28T08:43:07;100879.19;;;13.56;100.00
58534;BME280;44109;52.398;7.024;2023-04-28T08:45:40;100883.19;;;13.62;100.00
58534;BME280;44109;52.398;7.024;2023-04-28T08:48:17;100887.25;;;13.68;100.00
58534;BME280;44109;52.398;7.024;2023-04-28T08:50:49;100883.28;;;13.73;100.00
58534;BME280;44109;52.398;7.024;2023-04-28T08:53:21;100883.28;;;13.76;100.00
58534;BME280;44109;52.398;7.024;2023-04-28T08:55:53;100880.94;;;13.78;100.00
58534;BME280;44109;52.398;7.024;2023-04-28T08:58:22;100882.84;;;13.67;100.00
58534;BME280;44109;52.398;7.024;2023-04-28T09:00:51;100880.94;;;13.82;100.00
58534;BME280;44109;52.398;7.024;2023-04-28T09:03:19;100872.88;;;13.66;100.00
58534;BME280;44109;52.398;7.024;2023-04-28T09:05:49;100886.84;;;13.69;100.00
58534;BME280;44109;52.398;7.024;2023-04-28T09:08:16;100881.25;;;13.66;100.00
58534;BME280;44109;52.398;7.024;2023-04-28T09:10:44;100880.03;;;13.60;100.00
58534;BME280;44109;52.398;7.024;2023-04-28T09:13:23;100879.19;;;13.56;100.00
58534;BME280;44109;52.398;7.024;2023-04-28T09:15:58;100880.38;;;13.55;100.00
58534;BME280;44109;52.398;7.024;2023-04-28T09:18:26;100877.19;;;13.49;100.00
58534;BME280;44109;52.398;7.024;2023-04-28T09:21:03;100859.16;;;13.39;100.00
58534;BME280;44109;52.398;7.024;2023-04-28T09:23:33;100878.00;;;13.57;100.00
58534;BME280;44109;52.398;7.024;2023-04-28T09:26:02;100868.09;;;13.63;100.00
58534;BME280;44109;52.398;7.024;2023-04-28T09:28:31;100874.53;;;13.74;100.00
58534;BME280;44109;52.398;7.024;2023-04-28T09:31:00;100868.22;;;13.81;100.00
58534;BME280;44109;52.398;7.024;2023-04-28T09:33:29;100863.53;;;14.10;100.00
58534;BME280;44109;52.398;7.024;2023-04-28T09:35:56;100866.41;;;14.31;100.00
58534;BME280;44109;52.398;7.024;2023-04-28T09:38:26;100859.75;;;14.68;100.00
58534;BME280;44109;52.398;7.024;2023-04-28T09:40:56;100870.53;;;14.87;100.00
58534;BME280;44109;52.398;7.024;2023-04-28T09:43:28;100869.34;;;14.92;100.00
58534;BME280;44109;52.398;7.024;2023-04-28T09:45:58;100866.19;;;15.04;100.00
58534;BME280;44109;52.398;7.024;2023-04-28T09:48:29;100862.97;;;15.23;100.00
58534;BME280;44109;52.398;7.024;2023-04-28T09:50:59;100862.53;;;15.39;100.00
58534;BME280;44109;52.398;7.024;2023-04-28T09:53:29;100863.34;;;15.43;100.00
58534;BME280;44109;52.398;7.024;2023-04-28T09:55:58;100857.31;;;15.70;100.00
58534;BME280;44109;52.398;7.024;2023-04-28T09:58:28;100850.94;;;15.73;99.08
58534;BME280;44109;52.398;7.024;2023-04-28T10:00:59;100854.91;;;15.83;99.33
58534;BME280;44109;52.398;7.024;2023-04-28T10:03:28;100840.06;;;15.93;97.17
58534;BME280;44109;52.398;7.024;2023-04-28T10:05:57;100838.69;;;16.33;100.00
58534;BME280;44109;52.398;7.024;2023-04-28T10:08:26;100836.13;;;16.57;98.32
58534;BME280;44109;52.398;7.024;2023-04-28T10:10:56;100835.13;;;16.88;94.87
58534;BME280;44109;52.398;7.024;2023-04-28T10:13:24;100825.97;;;17.29;95.89
58534;BME280;44109;52.398;7.024;2023-04-28T10:15:52;100818.25;;;17.40;92.39
58534;BME280;44109;52.398;7.024;2023-04-28T10:18:22;100811.28;;;17.56;87.32
58534;BME280;44109;52.398;7.024;2023-04-28T10:20:53;100810.31;;;17.69;92.70
58534;BME280;44109;52.398;7.024;2023-04-28T10:23:57;100812.84;;;18.25;87.23
58534;BME280;44109;52.398;7.024;2023-04-28T10:26:58;100810.19;;;18.72;85.62
58534;BME280;44109;52.398;7.024;2023-04-28T10:29:34;100812.06;;;19.02;84.30
58534;BME280;44109;52.398;7.024;2023-04-28T10:32:22;100798.91;;;18.99;81.36
58534;BME280;44109;52.398;7.024;2023-04-28T10:34:51;100797.75;;;19.16;80.76
58534;BME280;44109;52.398;7.024;2023-04-28T10:37:19;100788.59;;;19.36;81.42
58534;BME280;44109;52.398;7.024;2023-04-28T10:40:31;100789.16;;;19.47;74.79
58534;BME280;44109;52.398;7.024;2023-04-28T10:43:01;100778.25;;;19.72;79.53
58534;BME280;44109;52.398;7.024;2023-04-28T10:45:57;100783.25;;;20.01;77.80
58534;BME280;44109;52.398;7.024;2023-04-28T10:48:53;100783.38;;;20.14;75.19
58534;BME280;44109;52.398;7.024;2023-04-28T10:51:26;100780.19;;;19.95;73.17
58534;BME280;44109;52.398;7.024;2023-04-28T10:54:08;100785.09;;;19.91;74.02
58534;BME280;44109;52.398;7.024;2023-04-28T10:56:41;100777.94;;;19.87;72.42
58534;BME280;44109;52.398;7.024;2023-04-28T10:59:42;100774.84;;;19.81;73.65
58534;BME280;44109;52.398;7.024;2023-04-28T11:05:14;100761.97;;;20.36;73.53
58534;BME280;44109;52.398;7.024;2023-04-28T11:11:15;100753.25;;;20.80;72.14
58534;BME280;44109;52.398;7.024;2023-04-28T11:13:48;100753.09;;;20.87;71.27
58534;BME280;44109;52.398;7.024;2023-04-28T11:16:20;100752.09;;;20.93;68.29
58534;BME280;44109;52.398;7.024;2023-04-28T11:18:55;100747.38;;;20.90;68.25
58534;BME280;44109;52.398;7.024;2023-04-28T11:21:28;100761.47;;;20.58;68.06
58534;BME280;44109;52.398;7.024;2023-04-28T11:23:57;100756.63;;;20.58;68.71
58534;BME280;44109;52.398;7.024;2023-04-28T11:26:26;100757.91;;;20.37;69.09
58534;BME280;44109;52.398;7.024;2023-04-28T11:28:56;100759.06;;;20.40;69.89
58534;BME280;44109;52.398;7.024;2023-04-28T11:31:25;100746.50;;;20.61;68.57
58534;BME280;44109;52.398;7.024;2023-04-28T11:33:57;100752.03;;;20.64;68.53
58534;BME280;44109;52.398;7.024;2023-04-28T11:36:29;100749.69;;;20.63;68.02
58534;BME280;44109;52.398;7.024;2023-04-28T11:38:59;100754.06;;;20.47;66.95
58534;BME280;44109;52.398;7.024;2023-04-28T11:41:30;100748.66;;;20.37;67.75
58534;BME280;44109;52.398;7.024;2023-04-28T11:43:59;100761.66;;;20.14;68.50
58534;BME280;44109;52.398;7.024;2023-04-28T11:46:28;100756.09;;;20.11;69.02
58534;BME280;44109;52.398;7.024;2023-04-28T11:49:00;100756.53;;;20.09;70.71
58534;BME280;44109;52.398;7.024;2023-04-28T11:51:32;100752.22;;;20.05;70.50
58534;BME280;44109;52.398;7.024;2023-04-28T11:54:01;100758.16;;;19.90;71.62
58534;BME280;44109;52.398;7.024;2023-04-28T11:56:29;100754.78;;;19.79;71.91
58534;BME280;44109;52.398;7.024;2023-04-28T11:59:02;100748.75;;;19.57;73.28
58534;BME280;44109;52.398;7.024;2023-04-28T12:01:33;100747.00;;;19.67;73.41
58534;BME280;44109;52.398;7.024;2023-04-28T12:04:02;100744.31;;;19.40;74.83
58534;BME280;44109;52.398;7.024;2023-04-28T12:06:30;100755.19;;;19.38;74.80
58534;BME280;44109;52.398;7.024;2023-04-28T12:08:58;100755.56;;;19.40;75.41
58534;BME280;44109;52.398;7.024;2023-04-28T12:11:29;100752.13;;;19.09;78.82
58534;BME280;44109;52.398;7.024;2023-04-28T12:14:06;100750.97;;;18.83;81.34
58534;BME280;44109;52.398;7.024;2023-04-28T12:16:41;100749.94;;;18.96;81.62
58534;BME280;44109;52.398;7.024;2023-04-28T12:19:11;100754.03;;;18.92;83.24
58534;BME280;44109;52.398;7.024;2023-04-28T12:21:40;100759.34;;;18.86;84.27
58534;BME280;44109;52.398;7.024;2023-04-28T12:24:16;100750.25;;;18.79;85.66
58534;BME280;44109;52.398;7.024;2023-04-28T12:26:45;100756.41;;;18.70;87.43
58534;BME280;44109;52.398;7.024;2023-04-28T12:29:36;100746.75;;;18.44;89.29
58534;BME280;44109;52.398;7.024;2023-04-28T12:32:08;100753.81;;;18.29;89.72
58534;BME280;44109;52.398;7.024;2023-04-28T12:34:39;100746.34;;;18.18;90.80
58534;BME280;44109;52.398;7.024;2023-04-28T12:37:08;100751.97;;;18.18;92.42
58534;BME280;44109;52.398;7.024;2023-04-28T12:39:39;100756.63;;;18.02;98.35
58534;BME280;44109;52.398;7.024;2023-04-28T12:42:07;100764.19;;;17.74;100.00
58534;BME280;44109;52.398;7.024;2023-04-28T12:44:36;100754.75;;;17.23;100.00
58534;BME280;44109;52.398;7.024;2023-04-28T12:47:07;100754.44;;;17.14;100.00
58534;BME280;44109;52.398;7.024;2023-04-28T12:49:36;100750.94;;;17.03;100.00
58534;BME280;44109;52.398;7.024;2023-04-28T12:52:04;100759.47;;;16.92;100.00
58534;BME280;44109;52.398;7.024;2023-04-28T12:54:32;100757.41;;;16.99;100.00
58534;BME280;44109;52.398;7.024;2023-04-28T12:57:00;100756.63;;;16.95;100.00
58534;BME280;44109;52.398;7.024;2023-04-28T12:59:29;100762.38;;;16.78;100.00
58534;BME280;44109;52.398;7.024;2023-04-28T13:01:57;100756.81;;;16.74;100.00
58534;BME280;44109;52.398;7.024;2023-04-28T13:04:26;100754.00;;;16.74;100.00
58534;BME280;44109;52.398;7.024;2023-04-28T13:06:57;100753.44;;;16.41;100.00
58534;BME280;44109;52.398;7.024;2023-04-28T13:09:25;100750.41;;;16.18;100.00
58534;BME280;44109;52.398;7.024;2023-04-28T13:11:53;100747.69;;;16.04;100.00
58534;BME280;44109;52.398;7.024;2023-04-28T13:14:21;100722.91;;;15.98;100.00